Terminal Aerodrome Forecast
Issued by NWS

Home | Current Version | Previous Version | Text Only | Print | Product List | Glossary On
Versions: 1 2 3 4 5 6 7 8 9 10 11 12 13 14
226
FTUS44 KCRP 111147
TAFALI
TAF
KALI 111147Z 1112/1212 VRB03KT 3SM BR OVC004 WS020/17040KT
     FM111400 VRB03KT 6SM BR OVC008 WS020/17040KT
     FM111800 19014KT P6SM OVC018
     FM120000 17006KT 4SM BR OVC009
     FM120400 19004KT 1/2SM FG BKN004=

USA.gov is the U.S. government's official web portal to all federal, state and local government web resources and services.